KFAY/FAY METAR and TAF weather

Enter ICAO airport designator
Station Type Date Time Source
KFAY METAR 2019/12/08 13:53 UTC NOAA

KFAY 081353Z 03009KT 10SM CLR 03/M02 A3045 RMK AO2 SLP307 T00281022


Station Type Date Time Source
KFAY Decoded METAR 2019/12/08 13:53 UTC NOAA

FAYETTEVILLE REGIONAL AIRPORT , NC, United States (KFAY) 34-59N 078-53W 55M
Dec 08, 2019 - 08:53 AM EST / 2019.12.08 1353 UTC
Wind: from the NNE (030 degrees) at 10 MPH (9 KT):0
Visibility: 10 mile(s):0
Sky conditions: clear
Temperature: 37.0 F (2.8 C)
Dew Point: 28.0 F (-2.2 C)
Relative Humidity: 69%
Pressure (altimeter): 30.45 in. Hg (1031 hPa)
ob: KFAY 081353Z 03009KT 10SM CLR 03/M02 A3045 RMK AO2 SLP307 T00281022
cycle: 14

Station Type Date Time Source
KFAY TAF 2019/12/08 12:39 UTC NOAA

TAF KFAY 081135Z 0812/0912 04004KT P6SM SCT250
FM081900 05003KT P6SM SCT025 OVC050
FM082300 04005KT 3SM -RA BR BKN015
FM090600 VRB03KT 3SM -RA OVC008
FM090900 VRB02KT 3SM -RA BR OVC003
FM091000 VRB02KT 1/2SM -DZ FG OVC002

Example: see airport list